sensor_id;sensor_type;location;lat;lon;timestamp;P1;durP1;ratioP1;P2;durP2;ratioP2
58360;SDS011;44164;44.954;10.068;2023-03-19T00:00:07;4.22;;;2.95;;
58360;SDS011;44164;44.954;10.068;2023-03-19T00:02:34;3.88;;;2.50;;
58360;SDS011;44164;44.954;10.068;2023-03-19T00:05:01;4.55;;;2.97;;
58360;SDS011;44164;44.954;10.068;2023-03-19T00:07:28;4.55;;;2.92;;
58360;SDS011;44164;44.954;10.068;2023-03-19T00:09:54;7.60;;;3.15;;
58360;SDS011;44164;44.954;10.068;2023-03-19T00:12:20;4.80;;;2.67;;
58360;SDS011;44164;44.954;10.068;2023-03-19T00:14:48;4.70;;;2.63;;
58360;SDS011;44164;44.954;10.068;2023-03-19T00:17:14;5.10;;;3.03;;
58360;SDS011;44164;44.954;10.068;2023-03-19T00:19:40;4.20;;;2.80;;
58360;SDS011;44164;44.954;10.068;2023-03-19T00:22:06;3.80;;;2.92;;
58360;SDS011;44164;44.954;10.068;2023-03-19T00:24:33;4.47;;;2.97;;
58360;SDS011;44164;44.954;10.068;2023-03-19T00:26:59;4.20;;;2.72;;
58360;SDS011;44164;44.954;10.068;2023-03-19T00:29:25;3.75;;;2.55;;
58360;SDS011;44164;44.954;10.068;2023-03-19T00:31:52;3.88;;;2.47;;
58360;SDS011;44164;44.954;10.068;2023-03-19T00:34:18;3.55;;;2.80;;
58360;SDS011;44164;44.954;10.068;2023-03-19T00:36:45;4.72;;;2.78;;
58360;SDS011;44164;44.954;10.068;2023-03-19T00:39:11;8.98;;;3.20;;
58360;SDS011;44164;44.954;10.068;2023-03-19T00:41:38;6.30;;;3.20;;
58360;SDS011;44164;44.954;10.068;2023-03-19T00:44:04;4.43;;;3.03;;
58360;SDS011;44164;44.954;10.068;2023-03-19T00:46:31;4.68;;;3.03;;
58360;SDS011;44164;44.954;10.068;2023-03-19T00:48:57;3.60;;;2.88;;
58360;SDS011;44164;44.954;10.068;2023-03-19T00:51:24;4.05;;;2.95;;
58360;SDS011;44164;44.954;10.068;2023-03-19T00:53:50;3.95;;;3.03;;
58360;SDS011;44164;44.954;10.068;2023-03-19T00:56:17;3.92;;;2.80;;
58360;SDS011;44164;44.954;10.068;2023-03-19T00:58:45;3.80;;;2.70;;
58360;SDS011;44164;44.954;10.068;2023-03-19T01:01:12;4.93;;;3.05;;
58360;SDS011;44164;44.954;10.068;2023-03-19T01:03:41;3.70;;;2.88;;
58360;SDS011;44164;44.954;10.068;2023-03-19T01:06:07;5.18;;;3.00;;
58360;SDS011;44164;44.954;10.068;2023-03-19T01:08:34;5.32;;;2.70;;
58360;SDS011;44164;44.954;10.068;2023-03-19T01:11:18;3.60;;;2.50;;
58360;SDS011;44164;44.954;10.068;2023-03-19T01:13:45;5.18;;;3.38;;
58360;SDS011;44164;44.954;10.068;2023-03-19T01:16:11;4.30;;;2.85;;
58360;SDS011;44164;44.954;10.068;2023-03-19T01:18:38;4.30;;;3.10;;
58360;SDS011;44164;44.954;10.068;2023-03-19T01:21:04;4.88;;;3.13;;
58360;SDS011;44164;44.954;10.068;2023-03-19T01:23:32;4.22;;;3.00;;
58360;SDS011;44164;44.954;10.068;2023-03-19T01:25:58;4.30;;;2.67;;
58360;SDS011;44164;44.954;10.068;2023-03-19T01:30:56;6.20;;;3.30;;
58360;SDS011;44164;44.954;10.068;2023-03-19T01:33:38;5.18;;;3.30;;
58360;SDS011;44164;44.954;10.068;2023-03-19T01:36:15;4.50;;;3.05;;
58360;SDS011;44164;44.954;10.068;2023-03-19T01:39:14;3.38;;;2.58;;
58360;SDS011;44164;44.954;10.068;2023-03-19T01:41:41;4.40;;;3.40;;
58360;SDS011;44164;44.954;10.068;2023-03-19T01:44:36;3.55;;;2.72;;
58360;SDS011;44164;44.954;10.068;2023-03-19T01:47:38;3.95;;;3.08;;
58360;SDS011;44164;44.954;10.068;2023-03-19T01:50:54;3.95;;;3.17;;
58360;SDS011;44164;44.954;10.068;2023-03-19T01:53:29;4.30;;;2.95;;
58360;SDS011;44164;44.954;10.068;2023-03-19T01:56:11;5.40;;;3.80;;
58360;SDS011;44164;44.954;10.068;2023-03-19T01:59:28;4.15;;;2.88;;
58360;SDS011;44164;44.954;10.068;2023-03-19T02:02:26;4.43;;;3.08;;
58360;SDS011;44164;44.954;10.068;2023-03-19T02:05:10;5.53;;;3.28;;
58360;SDS011;44164;44.954;10.068;2023-03-19T02:07:38;6.47;;;3.15;;
58360;SDS011;44164;44.954;10.068;2023-03-19T02:10:07;4.22;;;2.72;;
58360;SDS011;44164;44.954;10.068;2023-03-19T02:12:36;4.75;;;3.42;;
58360;SDS011;44164;44.954;10.068;2023-03-19T02:15:03;4.70;;;3.22;;
58360;SDS011;44164;44.954;10.068;2023-03-19T02:17:30;3.78;;;3.00;;
58360;SDS011;44164;44.954;10.068;2023-03-19T02:22:30;5.07;;;3.40;;
58360;SDS011;44164;44.954;10.068;2023-03-19T02:25:00;3.85;;;3.05;;
58360;SDS011;44164;44.954;10.068;2023-03-19T02:27:28;4.75;;;3.45;;
58360;SDS011;44164;44.954;10.068;2023-03-19T02:29:55;4.78;;;2.95;;
58360;SDS011;44164;44.954;10.068;2023-03-19T02:32:23;4.90;;;3.58;;
58360;SDS011;44164;44.954;10.068;2023-03-19T02:34:49;3.95;;;2.90;;
58360;SDS011;44164;44.954;10.068;2023-03-19T02:37:20;4.72;;;3.00;;
58360;SDS011;44164;44.954;10.068;2023-03-19T02:39:50;5.93;;;2.88;;
58360;SDS011;44164;44.954;10.068;2023-03-19T02:42:19;4.75;;;3.20;;
58360;SDS011;44164;44.954;10.068;2023-03-19T02:44:46;3.80;;;2.90;;
58360;SDS011;44164;44.954;10.068;2023-03-19T02:47:13;4.47;;;3.38;;
58360;SDS011;44164;44.954;10.068;2023-03-19T02:49:39;3.30;;;2.78;;
58360;SDS011;44164;44.954;10.068;2023-03-19T02:52:05;4.65;;;2.88;;
58360;SDS011;44164;44.954;10.068;2023-03-19T02:54:32;6.78;;;3.25;;
58360;SDS011;44164;44.954;10.068;2023-03-19T02:56:58;5.05;;;3.30;;
58360;SDS011;44164;44.954;10.068;2023-03-19T02:59:24;3.83;;;2.63;;
58360;SDS011;44164;44.954;10.068;2023-03-19T03:01:51;3.47;;;2.83;;
58360;SDS011;44164;44.954;10.068;2023-03-19T03:04:17;4.15;;;2.80;;
58360;SDS011;44164;44.954;10.068;2023-03-19T03:06:44;4.95;;;3.15;;
58360;SDS011;44164;44.954;10.068;2023-03-19T03:09:10;4.65;;;3.10;;
58360;SDS011;44164;44.954;10.068;2023-03-19T03:11:37;5.22;;;3.25;;
58360;SDS011;44164;44.954;10.068;2023-03-19T03:14:03;3.97;;;2.75;;
58360;SDS011;44164;44.954;10.068;2023-03-19T03:16:29;4.63;;;3.15;;
58360;SDS011;44164;44.954;10.068;2023-03-19T03:18:55;5.72;;;2.92;;
58360;SDS011;44164;44.954;10.068;2023-03-19T03:21:22;5.88;;;3.17;;
58360;SDS011;44164;44.954;10.068;2023-03-19T03:23:48;4.00;;;2.97;;
58360;SDS011;44164;44.954;10.068;2023-03-19T03:26:14;4.03;;;2.90;;
58360;SDS011;44164;44.954;10.068;2023-03-19T03:28:40;4.53;;;2.70;;
58360;SDS011;44164;44.954;10.068;2023-03-19T03:31:07;4.55;;;3.13;;
58360;SDS011;44164;44.954;10.068;2023-03-19T03:33:33;4.25;;;2.95;;
58360;SDS011;44164;44.954;10.068;2023-03-19T03:36:01;5.05;;;3.40;;
58360;SDS011;44164;44.954;10.068;2023-03-19T03:38:27;4.63;;;3.28;;
58360;SDS011;44164;44.954;10.068;2023-03-19T03:40:53;3.97;;;2.55;;
58360;SDS011;44164;44.954;10.068;2023-03-19T03:43:23;4.18;;;2.80;;
58360;SDS011;44164;44.954;10.068;2023-03-19T03:45:50;4.45;;;3.30;;
58360;SDS011;44164;44.954;10.068;2023-03-19T03:48:17;4.38;;;2.85;;
58360;SDS011;44164;44.954;10.068;2023-03-19T03:50:43;4.57;;;3.13;;
58360;SDS011;44164;44.954;10.068;2023-03-19T03:53:13;4.63;;;3.10;;
58360;SDS011;44164;44.954;10.068;2023-03-19T03:55:40;3.38;;;2.90;;
58360;SDS011;44164;44.954;10.068;2023-03-19T03:58:06;4.53;;;3.20;;
58360;SDS011;44164;44.954;10.068;2023-03-19T04:00:32;3.70;;;2.72;;
58360;SDS011;44164;44.954;10.068;2023-03-19T04:02:59;4.05;;;2.92;;
58360;SDS011;44164;44.954;10.068;2023-03-19T04:05:25;3.80;;;2.80;;
58360;SDS011;44164;44.954;10.068;2023-03-19T04:07:51;4.55;;;3.20;;
58360;SDS011;44164;44.954;10.068;2023-03-19T04:10:18;3.92;;;2.92;;
58360;SDS011;44164;44.954;10.068;2023-03-19T04:12:44;4.30;;;3.28;;
58360;SDS011;44164;44.954;10.068;2023-03-19T04:15:11;6.25;;;3.42;;
58360;SDS011;44164;44.954;10.068;2023-03-19T04:17:40;3.50;;;2.60;;
58360;SDS011;44164;44.954;10.068;2023-03-19T04:20:07;4.80;;;3.03;;
58360;SDS011;44164;44.954;10.068;2023-03-19T04:22:34;4.38;;;2.97;;
58360;SDS011;44164;44.954;10.068;2023-03-19T04:25:00;4.55;;;2.53;;
58360;SDS011;44164;44.954;10.068;2023-03-19T04:27:26;4.35;;;2.65;;
58360;SDS011;44164;44.954;10.068;2023-03-19T04:29:53;4.35;;;2.72;;
58360;SDS011;44164;44.954;10.068;2023-03-19T04:32:19;3.50;;;2.70;;
58360;SDS011;44164;44.954;10.068;2023-03-19T04:34:46;4.07;;;2.72;;
58360;SDS011;44164;44.954;10.068;2023-03-19T04:37:13;4.47;;;3.10;;
58360;SDS011;44164;44.954;10.068;2023-03-19T04:39:45;4.47;;;2.78;;
58360;SDS011;44164;44.954;10.068;2023-03-19T04:42:11;3.95;;;3.05;;
58360;SDS011;44164;44.954;10.068;2023-03-19T04:44:47;4.03;;;2.30;;
58360;SDS011;44164;44.954;10.068;2023-03-19T04:47:15;5.20;;;3.17;;
58360;SDS011;44164;44.954;10.068;2023-03-19T04:49:51;4.07;;;2.88;;
58360;SDS011;44164;44.954;10.068;2023-03-19T04:52:19;3.50;;;2.42;;
58360;SDS011;44164;44.954;10.068;2023-03-19T04:54:45;3.65;;;2.60;;
58360;SDS011;44164;44.954;10.068;2023-03-19T04:57:11;4.15;;;2.85;;
58360;SDS011;44164;44.954;10.068;2023-03-19T04:59:40;3.35;;;2.53;;
58360;SDS011;44164;44.954;10.068;2023-03-19T05:02:07;3.25;;;2.60;;
58360;SDS011;44164;44.954;10.068;2023-03-19T05:04:35;3.60;;;2.97;;
58360;SDS011;44164;44.954;10.068;2023-03-19T05:07:06;3.88;;;2.40;;
58360;SDS011;44164;44.954;10.068;2023-03-19T05:09:33;3.05;;;2.45;;
58360;SDS011;44164;44.954;10.068;2023-03-19T05:12:00;4.03;;;2.95;;
58360;SDS011;44164;44.954;10.068;2023-03-19T05:14:27;4.05;;;2.67;;
58360;SDS011;44164;44.954;10.068;2023-03-19T05:17:13;3.50;;;2.72;;
58360;SDS011;44164;44.954;10.068;2023-03-19T05:19:58;3.22;;;2.50;;
58360;SDS011;44164;44.954;10.068;2023-03-19T05:22:25;3.90;;;2.90;;
58360;SDS011;44164;44.954;10.068;2023-03-19T05:24:53;4.10;;;2.92;;
58360;SDS011;44164;44.954;10.068;2023-03-19T05:27:19;4.82;;;3.13;;
58360;SDS011;44164;44.954;10.068;2023-03-19T05:29:52;4.00;;;2.83;;
58360;SDS011;44164;44.954;10.068;2023-03-19T05:32:38;3.45;;;2.65;;
58360;SDS011;44164;44.954;10.068;2023-03-19T05:35:08;4.22;;;2.75;;
58360;SDS011;44164;44.954;10.068;2023-03-19T05:37:36;3.95;;;3.05;;
58360;SDS011;44164;44.954;10.068;2023-03-19T05:40:03;4.85;;;2.78;;
58360;SDS011;44164;44.954;10.068;2023-03-19T05:42:29;3.67;;;2.70;;
58360;SDS011;44164;44.954;10.068;2023-03-19T05:44:57;3.85;;;2.85;;
58360;SDS011;44164;44.954;10.068;2023-03-19T05:47:26;3.53;;;2.50;;
58360;SDS011;44164;44.954;10.068;2023-03-19T05:49:55;4.35;;;2.60;;
58360;SDS011;44164;44.954;10.068;2023-03-19T05:52:22;3.00;;;2.38;;
58360;SDS011;44164;44.954;10.068;2023-03-19T05:54:49;4.15;;;2.72;;
58360;SDS011;44164;44.954;10.068;2023-03-19T05:57:28;4.05;;;2.53;;
58360;SDS011;44164;44.954;10.068;2023-03-19T06:00:00;4.10;;;2.58;;
58360;SDS011;44164;44.954;10.068;2023-03-19T06:02:32;3.67;;;2.45;;
58360;SDS011;44164;44.954;10.068;2023-03-19T06:07:47;4.05;;;2.53;;
58360;SDS011;44164;44.954;10.068;2023-03-19T06:10:35;3.78;;;2.75;;
58360;SDS011;44164;44.954;10.068;2023-03-19T06:13:06;3.55;;;2.55;;
58360;SDS011;44164;44.954;10.068;2023-03-19T06:15:38;2.95;;;2.15;;
58360;SDS011;44164;44.954;10.068;2023-03-19T06:18:04;3.80;;;2.78;;
58360;SDS011;44164;44.954;10.068;2023-03-19T06:20:30;4.28;;;2.42;;
58360;SDS011;44164;44.954;10.068;2023-03-19T06:22:57;3.22;;;2.20;;
58360;SDS011;44164;44.954;10.068;2023-03-19T06:25:23;4.85;;;2.50;;
58360;SDS011;44164;44.954;10.068;2023-03-19T06:27:50;3.60;;;2.50;;
58360;SDS011;44164;44.954;10.068;2023-03-19T06:30:25;4.75;;;2.95;;
58360;SDS011;44164;44.954;10.068;2023-03-19T06:32:53;4.32;;;2.63;;
58360;SDS011;44164;44.954;10.068;2023-03-19T06:35:20;3.85;;;2.35;;
58360;SDS011;44164;44.954;10.068;2023-03-19T06:37:48;3.25;;;2.50;;
58360;SDS011;44164;44.954;10.068;2023-03-19T06:40:14;3.28;;;2.45;;
58360;SDS011;44164;44.954;10.068;2023-03-19T06:42:43;3.63;;;2.50;;
58360;SDS011;44164;44.954;10.068;2023-03-19T06:45:13;3.80;;;2.28;;
58360;SDS011;44164;44.954;10.068;2023-03-19T06:47:41;4.47;;;2.60;;
58360;SDS011;44164;44.954;10.068;2023-03-19T06:50:09;5.43;;;2.60;;
58360;SDS011;44164;44.954;10.068;2023-03-19T06:52:35;3.38;;;2.55;;
58360;SDS011;44164;44.954;10.068;2023-03-19T06:55:02;3.65;;;2.75;;
58360;SDS011;44164;44.954;10.068;2023-03-19T06:57:28;4.60;;;3.47;;
58360;SDS011;44164;44.954;10.068;2023-03-19T06:59:54;3.97;;;2.72;;
58360;SDS011;44164;44.954;10.068;2023-03-19T07:02:21;3.05;;;2.28;;
58360;SDS011;44164;44.954;10.068;2023-03-19T07:04:47;3.58;;;2.30;;
58360;SDS011;44164;44.954;10.068;2023-03-19T07:07:13;4.88;;;2.78;;
58360;SDS011;44164;44.954;10.068;2023-03-19T07:09:40;3.70;;;2.40;;
58360;SDS011;44164;44.954;10.068;2023-03-19T07:12:06;4.78;;;2.88;;
58360;SDS011;44164;44.954;10.068;2023-03-19T07:14:32;4.03;;;2.70;;
58360;SDS011;44164;44.954;10.068;2023-03-19T07:16:58;3.65;;;2.65;;
58360;SDS011;44164;44.954;10.068;2023-03-19T07:19:25;3.40;;;2.55;;
58360;SDS011;44164;44.954;10.068;2023-03-19T07:21:51;3.28;;;2.42;;
58360;SDS011;44164;44.954;10.068;2023-03-19T07:24:17;3.42;;;2.22;;
58360;SDS011;44164;44.954;10.068;2023-03-19T07:26:43;4.05;;;2.83;;
58360;SDS011;44164;44.954;10.068;2023-03-19T07:29:11;3.50;;;2.53;;
58360;SDS011;44164;44.954;10.068;2023-03-19T07:31:37;3.95;;;2.42;;
58360;SDS011;44164;44.954;10.068;2023-03-19T07:34:03;4.13;;;2.67;;
58360;SDS011;44164;44.954;10.068;2023-03-19T07:36:29;3.20;;;2.17;;
58360;SDS011;44164;44.954;10.068;2023-03-19T07:38:56;2.90;;;2.05;;
58360;SDS011;44164;44.954;10.068;2023-03-19T07:41:22;3.00;;;2.10;;
58360;SDS011;44164;44.954;10.068;2023-03-19T07:43:48;4.45;;;2.92;;
58360;SDS011;44164;44.954;10.068;2023-03-19T07:46:17;4.60;;;2.47;;
58360;SDS011;44164;44.954;10.068;2023-03-19T07:48:43;3.22;;;2.28;;
58360;SDS011;44164;44.954;10.068;2023-03-19T07:51:09;2.75;;;2.28;;
58360;SDS011;44164;44.954;10.068;2023-03-19T07:53:35;3.22;;;2.40;;
58360;SDS011;44164;44.954;10.068;2023-03-19T07:56:01;3.20;;;2.30;;
58360;SDS011;44164;44.954;10.068;2023-03-19T07:58:27;3.92;;;2.78;;
58360;SDS011;44164;44.954;10.068;2023-03-19T08:00:54;3.78;;;2.30;;
58360;SDS011;44164;44.954;10.068;2023-03-19T08:03:20;4.13;;;2.75;;
58360;SDS011;44164;44.954;10.068;2023-03-19T08:05:47;4.10;;;2.42;;
58360;SDS011;44164;44.954;10.068;2023-03-19T08:08:15;4.18;;;2.40;;
58360;SDS011;44164;44.954;10.068;2023-03-19T08:10:41;4.25;;;2.88;;
58360;SDS011;44164;44.954;10.068;2023-03-19T08:13:07;4.72;;;2.40;;
58360;SDS011;44164;44.954;10.068;2023-03-19T08:15:34;4.13;;;2.58;;
58360;SDS011;44164;44.954;10.068;2023-03-19T08:18:00;4.43;;;2.70;;
58360;SDS011;44164;44.954;10.068;2023-03-19T08:22:54;4.35;;;2.70;;
58360;SDS011;44164;44.954;10.068;2023-03-19T08:25:21;4.38;;;2.70;;
58360;SDS011;44164;44.954;10.068;2023-03-19T08:27:47;3.25;;;2.35;;
58360;SDS011;44164;44.954;10.068;2023-03-19T08:30:14;3.45;;;2.50;;
58360;SDS011;44164;44.954;10.068;2023-03-19T08:32:40;3.80;;;2.67;;
58360;SDS011;44164;44.954;10.068;2023-03-19T08:35:06;3.63;;;2.45;;
58360;SDS011;44164;44.954;10.068;2023-03-19T08:37:33;3.25;;;2.53;;
58360;SDS011;44164;44.954;10.068;2023-03-19T08:39:59;3.22;;;2.30;;
58360;SDS011;44164;44.954;10.068;2023-03-19T08:42:25;3.83;;;2.70;;
58360;SDS011;44164;44.954;10.068;2023-03-19T08:44:51;3.47;;;2.58;;
58360;SDS011;44164;44.954;10.068;2023-03-19T08:47:17;4.88;;;2.45;;
58360;SDS011;44164;44.954;10.068;2023-03-19T08:49:43;3.53;;;2.60;;
58360;SDS011;44164;44.954;10.068;2023-03-19T08:52:10;3.92;;;2.45;;
58360;SDS011;44164;44.954;10.068;2023-03-19T08:54:36;4.22;;;2.67;;
58360;SDS011;44164;44.954;10.068;2023-03-19T08:57:02;4.75;;;3.00;;
58360;SDS011;44164;44.954;10.068;2023-03-19T08:59:28;4.20;;;2.50;;
58360;SDS011;44164;44.954;10.068;2023-03-19T09:01:55;3.45;;;2.20;;
58360;SDS011;44164;44.954;10.068;2023-03-19T09:04:21;3.33;;;2.65;;
58360;SDS011;44164;44.954;10.068;2023-03-19T09:06:48;3.20;;;2.33;;
58360;SDS011;44164;44.954;10.068;2023-03-19T09:09:19;3.58;;;2.47;;
58360;SDS011;44164;44.954;10.068;2023-03-19T09:11:47;3.33;;;2.38;;
58360;SDS011;44164;44.954;10.068;2023-03-19T09:14:14;3.50;;;2.58;;
58360;SDS011;44164;44.954;10.068;2023-03-19T09:16:41;3.90;;;2.65;;
58360;SDS011;44164;44.954;10.068;2023-03-19T09:19:08;3.50;;;2.50;;
58360;SDS011;44164;44.954;10.068;2023-03-19T09:21:34;3.88;;;2.40;;
58360;SDS011;44164;44.954;10.068;2023-03-19T09:24:02;4.50;;;3.13;;
58360;SDS011;44164;44.954;10.068;2023-03-19T09:26:28;3.23;;;2.27;;
58360;SDS011;44164;44.954;10.068;2023-03-19T09:28:55;3.38;;;2.42;;
58360;SDS011;44164;44.954;10.068;2023-03-19T09:31:21;3.40;;;2.47;;
58360;SDS011;44164;44.954;10.068;2023-03-19T09:33:47;3.70;;;2.08;;
58360;SDS011;44164;44.954;10.068;2023-03-19T09:36:13;3.17;;;2.47;;
58360;SDS011;44164;44.954;10.068;2023-03-19T09:38:39;3.72;;;2.60;;
58360;SDS011;44164;44.954;10.068;2023-03-19T09:41:07;4.65;;;2.47;;
58360;SDS011;44164;44.954;10.068;2023-03-19T09:46:15;3.42;;;2.10;;
58360;SDS011;44164;44.954;10.068;2023-03-19T09:51:24;3.47;;;2.53;;
58360;SDS011;44164;44.954;10.068;2023-03-19T09:53:56;4.28;;;2.60;;
58360;SDS011;44164;44.954;10.068;2023-03-19T09:56:24;4.15;;;2.35;;
58360;SDS011;44164;44.954;10.068;2023-03-19T09:58:50;3.65;;;2.60;;
58360;SDS011;44164;44.954;10.068;2023-03-19T10:01:28;4.43;;;2.70;;
58360;SDS011;44164;44.954;10.068;2023-03-19T10:06:35;3.63;;;2.40;;
58360;SDS011;44164;44.954;10.068;2023-03-19T10:12:06;3.10;;;2.53;;
58360;SDS011;44164;44.954;10.068;2023-03-19T10:14:50;4.97;;;2.85;;
58360;SDS011;44164;44.954;10.068;2023-03-19T10:17:42;3.60;;;2.53;;
58360;SDS011;44164;44.954;10.068;2023-03-19T10:25:43;22.55;;;6.65;;
58360;SDS011;44164;44.954;10.068;2023-03-19T10:28:14;26.48;;;7.10;;
58360;SDS011;44164;44.954;10.068;2023-03-19T10:30:42;34.53;;;11.30;;
58360;SDS011;44164;44.954;10.068;2023-03-19T10:35:48;43.83;;;13.07;;
58360;SDS011;44164;44.954;10.068;2023-03-19T10:38:23;45.53;;;15.35;;
58360;SDS011;44164;44.954;10.068;2023-03-19T10:41:15;41.45;;;16.05;;
58360;SDS011;44164;44.954;10.068;2023-03-19T10:43:55;38.85;;;15.55;;
58360;SDS011;44164;44.954;10.068;2023-03-19T10:46:39;43.30;;;15.23;;
58360;SDS011;44164;44.954;10.068;2023-03-19T10:49:12;50.25;;;15.82;;
58360;SDS011;44164;44.954;10.068;2023-03-19T10:51:41;45.25;;;14.50;;
58360;SDS011;44164;44.954;10.068;2023-03-19T10:54:19;46.17;;;15.30;;
58360;SDS011;44164;44.954;10.068;2023-03-19T10:56:46;46.47;;;15.20;;
58360;SDS011;44164;44.954;10.068;2023-03-19T11:02:18;39.00;;;13.52;;
58360;SDS011;44164;44.954;10.068;2023-03-19T11:04:57;42.70;;;14.23;;
58360;SDS011;44164;44.954;10.068;2023-03-19T11:07:32;31.17;;;11.85;;
58360;SDS011;44164;44.954;10.068;2023-03-19T11:09:58;29.63;;;12.27;;
58360;SDS011;44164;44.954;10.068;2023-03-19T11:12:34;32.90;;;11.95;;
58360;SDS011;44164;44.954;10.068;2023-03-19T11:15:02;35.40;;;13.77;;
58360;SDS011;44164;44.954;10.068;2023-03-19T11:17:38;24.40;;;10.77;;
58360;SDS011;44164;44.954;10.068;2023-03-19T11:20:54;32.75;;;11.88;;
58360;SDS011;44164;44.954;10.068;2023-03-19T11:23:01;25.42;;;11.63;;
58360;SDS011;44164;44.954;10.068;2023-03-19T11:47:25;24.65;;;11.30;;
58360;SDS011;44164;44.954;10.068;2023-03-19T11:50:02;18.67;;;9.95;;
58360;SDS011;44164;44.954;10.068;2023-03-19T11:52:52;19.02;;;9.25;;
58360;SDS011;44164;44.954;10.068;2023-03-19T11:58:17;23.20;;;9.77;;
58360;SDS011;44164;44.954;10.068;2023-03-19T12:25:50;13.38;;;6.78;;
58360;SDS011;44164;44.954;10.068;2023-03-19T12:28:27;16.60;;;7.15;;
58360;SDS011;44164;44.954;10.068;2023-03-19T12:36:19;16.05;;;6.90;;
58360;SDS011;44164;44.954;10.068;2023-03-19T12:38:50;13.35;;;6.63;;
58360;SDS011;44164;44.954;10.068;2023-03-19T12:41:28;15.05;;;6.07;;
58360;SDS011;44164;44.954;10.068;2023-03-19T12:43:57;11.85;;;5.70;;
58360;SDS011;44164;44.954;10.068;2023-03-19T12:51:45;16.60;;;6.40;;
58360;SDS011;44164;44.954;10.068;2023-03-19T12:54:38;15.65;;;6.07;;
58360;SDS011;44164;44.954;10.068;2023-03-19T12:57:14;11.00;;;5.45;;
58360;SDS011;44164;44.954;10.068;2023-03-19T12:59:52;11.75;;;6.47;;
58360;SDS011;44164;44.954;10.068;2023-03-19T13:02:36;9.30;;;4.97;;
58360;SDS011;44164;44.954;10.068;2023-03-19T13:05:29;9.98;;;5.75;;
58360;SDS011;44164;44.954;10.068;2023-03-19T13:11:33;9.98;;;4.93;;
58360;SDS011;44164;44.954;10.068;2023-03-19T13:17:30;11.35;;;5.28;;
58360;SDS011;44164;44.954;10.068;2023-03-19T13:20:12;13.07;;;5.68;;
58360;SDS011;44164;44.954;10.068;2023-03-19T13:22:43;13.32;;;5.13;;
58360;SDS011;44164;44.954;10.068;2023-03-19T13:25:15;14.90;;;5.55;;
58360;SDS011;44164;44.954;10.068;2023-03-19T13:27:51;13.07;;;5.07;;
58360;SDS011;44164;44.954;10.068;2023-03-19T13:30:21;18.48;;;4.95;;
58360;SDS011;44164;44.954;10.068;2023-03-19T13:40:57;11.15;;;4.93;;
58360;SDS011;44164;44.954;10.068;2023-03-19T13:48:32;7.43;;;3.88;;
58360;SDS011;44164;44.954;10.068;2023-03-19T13:51:05;10.32;;;5.03;;
58360;SDS011;44164;44.954;10.068;2023-03-19T13:56:55;10.18;;;4.13;;
58360;SDS011;44164;44.954;10.068;2023-03-19T13:59:34;11.40;;;4.72;;
58360;SDS011;44164;44.954;10.068;2023-03-19T14:07:36;10.50;;;4.43;;
58360;SDS011;44164;44.954;10.068;2023-03-19T14:10:06;7.60;;;3.70;;
58360;SDS011;44164;44.954;10.068;2023-03-19T14:12:39;8.88;;;4.03;;
58360;SDS011;44164;44.954;10.068;2023-03-19T14:17:36;11.25;;;4.43;;
58360;SDS011;44164;44.954;10.068;2023-03-19T14:22:38;6.28;;;3.60;;
58360;SDS011;44164;44.954;10.068;2023-03-19T14:25:22;9.93;;;4.00;;
58360;SDS011;44164;44.954;10.068;2023-03-19T14:27:50;8.73;;;3.70;;
58360;SDS011;44164;44.954;10.068;2023-03-19T14:30:32;12.57;;;4.15;;
58360;SDS011;44164;44.954;10.068;2023-03-19T14:33:04;7.40;;;3.85;;
58360;SDS011;44164;44.954;10.068;2023-03-19T14:35:38;7.75;;;4.15;;
58360;SDS011;44164;44.954;10.068;2023-03-19T14:38:24;6.30;;;3.60;;
58360;SDS011;44164;44.954;10.068;2023-03-19T14:40:57;10.63;;;3.83;;
58360;SDS011;44164;44.954;10.068;2023-03-19T14:43:38;9.43;;;4.05;;
58360;SDS011;44164;44.954;10.068;2023-03-19T14:46:25;10.15;;;3.97;;
58360;SDS011;44164;44.954;10.068;2023-03-19T14:57:07;7.45;;;3.67;;
58360;SDS011;44164;44.954;10.068;2023-03-19T14:59:41;12.25;;;3.53;;
58360;SDS011;44164;44.954;10.068;2023-03-19T15:02:16;8.07;;;4.35;;
58360;SDS011;44164;44.954;10.068;2023-03-19T15:04:51;6.50;;;3.50;;
58360;SDS011;44164;44.954;10.068;2023-03-19T15:07:24;6.68;;;3.58;;
58360;SDS011;44164;44.954;10.068;2023-03-19T15:09:54;7.32;;;3.63;;
58360;SDS011;44164;44.954;10.068;2023-03-19T15:17:58;8.68;;;3.67;;
58360;SDS011;44164;44.954;10.068;2023-03-19T15:20:26;9.60;;;3.45;;
58360;SDS011;44164;44.954;10.068;2023-03-19T15:23:04;6.75;;;3.40;;
58360;SDS011;44164;44.954;10.068;2023-03-19T15:25:31;8.00;;;3.38;;
58360;SDS011;44164;44.954;10.068;2023-03-19T15:28:11;6.53;;;3.75;;
58360;SDS011;44164;44.954;10.068;2023-03-19T15:30:38;5.90;;;3.08;;
58360;SDS011;44164;44.954;10.068;2023-03-19T15:33:23;7.45;;;4.10;;
58360;SDS011;44164;44.954;10.068;2023-03-19T15:35:55;7.63;;;3.33;;
58360;SDS011;44164;44.954;10.068;2023-03-19T15:38:25;6.25;;;3.38;;
58360;SDS011;44164;44.954;10.068;2023-03-19T15:40:54;5.53;;;3.13;;
58360;SDS011;44164;44.954;10.068;2023-03-19T15:43:20;6.53;;;3.38;;
58360;SDS011;44164;44.954;10.068;2023-03-19T15:45:48;6.35;;;4.38;;
58360;SDS011;44164;44.954;10.068;2023-03-19T15:50:42;8.10;;;3.72;;
58360;SDS011;44164;44.954;10.068;2023-03-19T15:53:17;8.70;;;3.65;;
58360;SDS011;44164;44.954;10.068;2023-03-19T15:55:49;10.25;;;3.53;;
58360;SDS011;44164;44.954;10.068;2023-03-19T15:58:18;8.38;;;4.50;;
58360;SDS011;44164;44.954;10.068;2023-03-19T16:00:47;13.48;;;3.50;;
58360;SDS011;44164;44.954;10.068;2023-03-19T16:03:18;10.88;;;4.10;;
58360;SDS011;44164;44.954;10.068;2023-03-19T16:05:49;10.50;;;4.18;;
58360;SDS011;44164;44.954;10.068;2023-03-19T16:08:24;8.07;;;3.42;;
58360;SDS011;44164;44.954;10.068;2023-03-19T16:10:51;6.65;;;3.28;;
58360;SDS011;44164;44.954;10.068;2023-03-19T16:15:54;7.38;;;3.78;;
58360;SDS011;44164;44.954;10.068;2023-03-19T16:18:46;7.63;;;3.95;;
58360;SDS011;44164;44.954;10.068;2023-03-19T16:21:16;9.93;;;3.83;;
58360;SDS011;44164;44.954;10.068;2023-03-19T16:29:02;8.05;;;3.50;;
58360;SDS011;44164;44.954;10.068;2023-03-19T16:31:31;8.50;;;3.25;;
58360;SDS011;44164;44.954;10.068;2023-03-19T16:34:15;6.50;;;3.67;;
58360;SDS011;44164;44.954;10.068;2023-03-19T16:36:48;6.55;;;3.72;;
58360;SDS011;44164;44.954;10.068;2023-03-19T16:44:33;7.80;;;3.33;;
58360;SDS011;44164;44.954;10.068;2023-03-19T16:47:10;8.50;;;3.13;;
58360;SDS011;44164;44.954;10.068;2023-03-19T16:49:37;5.75;;;3.30;;
58360;SDS011;44164;44.954;10.068;2023-03-19T16:52:03;7.43;;;2.63;;
58360;SDS011;44164;44.954;10.068;2023-03-19T16:54:30;5.80;;;3.47;;
58360;SDS011;44164;44.954;10.068;2023-03-19T16:56:56;6.60;;;3.45;;
58360;SDS011;44164;44.954;10.068;2023-03-19T16:59:25;5.75;;;3.40;;
58360;SDS011;44164;44.954;10.068;2023-03-19T17:01:52;7.55;;;3.55;;
58360;SDS011;44164;44.954;10.068;2023-03-19T17:04:18;4.88;;;2.75;;
58360;SDS011;44164;44.954;10.068;2023-03-19T17:06:45;7.68;;;3.33;;
58360;SDS011;44164;44.954;10.068;2023-03-19T17:09:11;5.90;;;3.50;;
58360;SDS011;44164;44.954;10.068;2023-03-19T17:11:38;6.90;;;2.83;;
58360;SDS011;44164;44.954;10.068;2023-03-19T17:14:06;5.07;;;2.80;;
58360;SDS011;44164;44.954;10.068;2023-03-19T17:16:34;5.82;;;3.20;;
58360;SDS011;44164;44.954;10.068;2023-03-19T17:19:00;5.22;;;2.60;;
58360;SDS011;44164;44.954;10.068;2023-03-19T17:21:27;4.50;;;3.03;;
58360;SDS011;44164;44.954;10.068;2023-03-19T17:23:55;4.88;;;2.70;;